Time;durP1;ratioP1;P1;durP2;ratioP2;P2;SDS_P1;SDS_P2;PMS_P1;PMS_P2;Temp;Humidity;BMP_temperature;BMP_pressure;BME280_temperature;BME280_humidity;BME280_pressure;Samples;Min_cycle;Max_cycle;Signal;HPM_P1;HPM_P2
2021/08/21 00:00:58;;;;;;;3.03;2.75;;;20.70;99.90;;;;;;4996350;28;20682;-81
2021/08/21 00:03:25;;;;;;;3.15;2.85;;;20.70;99.90;;;;;;4995058;28;20256;-80
2021/08/21 00:05:53;;;;;;;2.60;2.40;;;20.60;99.90;;;;;;4996018;28;20201;-81
2021/08/21 00:08:20;;;;;;;2.53;2.28;;;20.60;99.90;;;;;;4990348;28;20603;-81
2021/08/21 00:10:46;;;;;;;2.67;2.47;;;20.60;99.90;;;;;;4986899;28;20224;-80
2021/08/21 00:13:13;;;;;;;2.47;2.28;;;20.60;99.90;;;;;;4993206;28;20239;-80
2021/08/21 00:15:40;;;;;;;3.15;2.50;;;20.60;99.90;;;;;;4983745;28;20198;-80
2021/08/21 00:18:07;;;;;;;3.00;2.70;;;20.60;99.90;;;;;;4993295;28;20228;-80
2021/08/21 00:20:34;;;;;;;3.00;2.70;;;20.60;99.90;;;;;;4994911;28;20205;-79
2021/08/21 00:23:02;;;;;;;2.15;1.88;;;20.60;99.90;;;;;;4985847;28;20201;-79
2021/08/21 00:25:29;;;;;;;3.05;2.75;;;20.50;99.90;;;;;;4995136;28;20197;-80
2021/08/21 00:27:55;;;;;;;2.75;2.35;;;20.60;99.90;;;;;;4995929;28;20201;-80
2021/08/21 00:30:22;;;;;;;3.92;3.05;;;20.50;99.90;;;;;;4994682;28;20194;-79
2021/08/21 00:32:50;;;;;;;3.33;3.03;;;20.50;99.90;;;;;;4981545;28;20201;-79
2021/08/21 00:35:17;;;;;;;3.10;2.80;;;20.50;99.90;;;;;;4995398;28;20562;-79
2021/08/21 00:37:44;;;;;;;2.50;2.30;;;20.50;99.90;;;;;;4995852;28;20562;-79
2021/08/21 00:40:13;;;;;;;3.05;2.80;;;20.50;99.90;;;;;;5005370;28;20217;-80
2021/08/21 00:42:40;;;;;;;2.63;2.13;;;20.50;99.90;;;;;;4994218;28;20212;-80
2021/08/21 00:45:08;;;;;;;2.65;2.45;;;20.40;99.90;;;;;;4995402;28;20204;-80
2021/08/21 00:47:34;;;;;;;3.55;2.90;;;20.40;99.90;;;;;;4980982;28;20681;-80
2021/08/21 00:50:02;;;;;;;2.72;2.53;;;20.40;99.90;;;;;;4994574;28;20241;-80
2021/08/21 00:52:31;;;;;;;2.60;2.40;;;20.40;99.90;;;;;;4995048;28;20253;-79
2021/08/21 00:54:58;;;;;;;3.13;2.83;;;20.40;99.90;;;;;;4995040;28;20209;-79
2021/08/21 00:57:27;;;;;;;3.38;2.55;;;20.40;99.90;;;;;;4994755;28;20201;-80
2021/08/21 00:59:55;;;;;;;3.42;3.13;;;20.40;99.90;;;;;;4994936;28;20218;-81
2021/08/21 01:02:22;;;;;;;2.63;2.42;;;20.30;99.90;;;;;;4982011;28;20206;-79
2021/08/21 01:04:51;;;;;;;2.50;2.30;;;20.30;99.90;;;;;;4994668;28;20209;-80
2021/08/21 01:07:20;;;;;;;2.83;2.63;;;20.30;99.90;;;;;;4994546;28;20203;-80
2021/08/21 01:09:47;;;;;;;2.65;2.30;;;20.30;99.90;;;;;;4994405;28;20201;-80
2021/08/21 01:12:15;;;;;;;3.35;3.05;;;20.30;99.90;;;;;;4994891;28;20237;-79
2021/08/21 01:14:45;;;;;;;2.95;2.50;;;20.30;99.90;;;;;;4995080;28;20633;-80
2021/08/21 01:17:13;;;;;;;3.08;2.88;;;20.30;99.90;;;;;;4993480;28;20205;-79
2021/08/21 01:19:41;;;;;;;2.53;2.33;;;20.20;99.90;;;;;;4993805;28;20217;-78
2021/08/21 01:22:09;;;;;;;2.53;2.33;;;20.20;99.90;;;;;;4984766;28;20732;-79
2021/08/21 01:24:36;;;;;;;3.00;2.70;;;20.20;99.90;;;;;;4995164;28;20201;-80
2021/08/21 01:27:04;;;;;;;2.80;2.60;;;20.20;99.90;;;;;;4994781;28;20224;-81
2021/08/21 01:29:31;;;;;;;3.42;3.13;;;20.20;99.90;;;;;;4994187;28;20891;-81
2021/08/21 01:31:58;;;;;;;3.50;2.95;;;20.20;99.90;;;;;;4995809;28;20201;-81
2021/08/21 01:34:25;;;;;;;2.90;2.60;;;20.20;99.90;;;;;;4999142;28;20247;-81
2021/08/21 01:36:53;;;;;;;3.30;2.97;;;20.20;99.90;;;;;;4999135;28;20197;-81
2021/08/21 01:39:20;;;;;;;3.05;2.80;;;20.10;99.90;;;;;;4992498;28;20217;-81
2021/08/21 01:41:47;;;;;;;3.45;3.15;;;20.10;99.90;;;;;;4998986;28;20272;-82
2021/08/21 01:44:17;;;;;;;3.15;2.85;;;20.10;99.90;;;;;;4998651;28;20781;-82
2021/08/21 01:46:46;;;;;;;2.28;2.08;;;20.10;99.90;;;;;;4989099;28;20247;-82
2021/08/21 01:49:13;;;;;;;2.90;2.40;;;20.10;99.90;;;;;;4999530;28;20259;-82
2021/08/21 01:51:42;;;;;;;3.05;2.85;;;20.10;99.90;;;;;;4999996;28;20624;-81
2021/08/21 01:54:09;;;;;;;3.10;2.25;;;20.10;99.90;;;;;;4986930;28;20261;-81
2021/08/21 01:56:43;;;;;;;3.15;2.85;;;20.00;99.90;;;;;;4995688;28;20229;-82
2021/08/21 01:59:10;;;;;;;4.28;2.58;;;20.00;99.90;;;;;;4999298;28;20225;-81
2021/08/21 02:01:38;;;;;;;3.50;3.20;;;20.00;99.90;;;;;;4999071;28;20201;-80
2021/08/21 02:04:05;;;;;;;3.88;2.65;;;20.00;99.90;;;;;;4994879;28;20206;-80
2021/08/21 02:06:31;;;;;;;2.72;2.53;;;20.00;99.90;;;;;;4997210;28;20256;-80
2021/08/21 02:08:58;;;;;;;4.60;3.15;;;20.00;99.90;;;;;;4987895;28;20202;-80
2021/08/21 02:11:25;;;;;;;3.20;2.90;;;20.00;99.90;;;;;;4984003;28;20206;-81
2021/08/21 02:13:52;;;;;;;3.42;2.53;;;19.90;99.90;;;;;;4990497;28;20226;-80
2021/08/21 02:16:19;;;;;;;2.85;2.65;;;19.90;99.90;;;;;;4998256;28;20692;-81
2021/08/21 02:18:47;;;;;;;2.55;2.35;;;19.90;99.90;;;;;;4989608;28;20312;-81
2021/08/21 02:21:16;;;;;;;2.45;2.25;;;19.90;99.90;;;;;;4983345;28;20202;-80
2021/08/21 02:23:42;;;;;;;2.58;2.38;;;19.90;99.90;;;;;;4998190;28;20201;-80
2021/08/21 02:26:09;;;;;;;2.88;2.67;;;19.90;99.90;;;;;;4998760;28;20256;-79
2021/08/21 02:28:36;;;;;;;3.05;2.85;;;19.80;99.90;;;;;;4994938;28;20547;-80
2021/08/21 02:31:03;;;;;;;2.72;2.50;;;19.80;99.90;;;;;;4996140;28;20193;-79
2021/08/21 02:33:30;;;;;;;2.38;2.17;;;19.80;99.90;;;;;;4996504;28;20213;-80
2021/08/21 02:35:59;;;;;;;2.88;2.03;;;19.70;99.90;;;;;;4997456;28;20210;-78
2021/08/21 02:38:26;;;;;;;3.30;2.85;;;19.70;99.90;;;;;;4986292;28;20259;-78
2021/08/21 02:40:53;;;;;;;3.13;2.40;;;19.70;99.90;;;;;;4979391;28;20214;-79
2021/08/21 02:43:20;;;;;;;2.95;2.75;;;19.70;99.90;;;;;;4977163;28;20198;-78
2021/08/21 02:45:47;;;;;;;2.55;2.35;;;19.70;99.90;;;;;;4994629;28;20229;-79
2021/08/21 02:48:13;;;;;;;2.80;2.60;;;19.70;99.90;;;;;;4995966;28;20251;-80
2021/08/21 02:50:40;;;;;;;4.93;2.30;;;19.60;99.90;;;;;;4996627;28;20638;-79
2021/08/21 02:53:08;;;;;;;3.70;2.38;;;19.60;99.90;;;;;;4997538;28;20205;-79
2021/08/21 02:55:35;;;;;;;2.55;2.35;;;19.60;99.90;;;;;;4997114;28;20205;-80
2021/08/21 02:58:02;;;;;;;2.40;2.20;;;19.60;99.90;;;;;;4996597;28;20200;-79
2021/08/21 03:00:28;;;;;;;2.85;2.60;;;19.60;99.90;;;;;;4995105;28;20225;-79
2021/08/21 03:02:55;;;;;;;2.45;2.22;;;19.60;99.90;;;;;;4994968;28;20630;-79
2021/08/21 03:05:22;;;;;;;2.70;2.50;;;19.60;99.90;;;;;;4997435;28;20190;-78
2021/08/21 03:07:48;;;;;;;2.92;2.47;;;19.50;99.90;;;;;;4996758;28;20233;-78
2021/08/21 03:10:16;;;;;;;3.55;2.55;;;19.50;99.90;;;;;;4988787;28;20251;-78
2021/08/21 03:12:43;;;;;;;3.08;2.85;;;19.50;99.90;;;;;;4977357;28;20706;-80
2021/08/21 03:15:10;;;;;;;2.53;2.28;;;19.50;99.90;;;;;;4987294;28;20201;-78
2021/08/21 03:17:37;;;;;;;2.45;2.25;;;19.50;99.90;;;;;;4977658;28;20202;-78
2021/08/21 03:20:05;;;;;;;2.70;2.50;;;19.50;99.90;;;;;;4984190;28;20213;-79
2021/08/21 03:22:32;;;;;;;3.28;2.40;;;19.50;99.90;;;;;;4991317;28;20198;-79
2021/08/21 03:24:59;;;;;;;3.15;2.67;;;19.40;99.90;;;;;;4997641;28;20559;-79
2021/08/21 03:27:27;;;;;;;2.47;2.22;;;19.40;99.90;;;;;;4996176;28;20193;-79
2021/08/21 03:29:53;;;;;;;3.85;3.47;;;19.40;99.90;;;;;;4989957;28;20202;-79
2021/08/21 03:32:20;;;;;;;2.63;2.42;;;19.40;99.90;;;;;;4994952;28;20201;-78
2021/08/21 03:34:47;;;;;;;2.83;2.55;;;19.40;99.90;;;;;;4983693;28;20198;-79
2021/08/21 03:37:14;;;;;;;3.65;3.35;;;19.40;99.90;;;;;;4987510;28;20349;-79
2021/08/21 03:39:40;;;;;;;2.47;2.28;;;19.30;99.90;;;;;;4997916;28;20221;-79
2021/08/21 03:42:08;;;;;;;2.90;2.70;;;19.30;99.90;;;;;;4997935;28;20205;-78
2021/08/21 03:44:36;;;;;;;2.97;2.67;;;19.30;99.90;;;;;;4997796;28;20201;-80
2021/08/21 03:47:03;;;;;;;2.40;2.20;;;19.30;99.90;;;;;;5001825;28;20272;-80
2021/08/21 03:49:29;;;;;;;3.20;2.75;;;19.30;99.90;;;;;;4996229;28;20209;-79
2021/08/21 03:51:56;;;;;;;2.80;2.25;;;19.30;99.90;;;;;;4996694;28;20212;-78
2021/08/21 03:54:23;;;;;;;3.22;2.70;;;19.30;99.90;;;;;;4982369;28;20210;-79
2021/08/21 03:56:49;;;;;;;2.42;2.20;;;19.30;99.90;;;;;;4977812;28;20202;-78
2021/08/21 03:59:16;;;;;;;6.75;3.08;;;19.20;99.90;;;;;;4992017;28;20716;-80
2021/08/21 04:01:44;;;;;;;2.90;2.50;;;19.20;99.90;;;;;;4993351;28;20201;-79
2021/08/21 04:04:11;;;;;;;3.60;2.80;;;19.20;99.90;;;;;;4994288;28;20201;-80
2021/08/21 04:06:38;;;;;;;2.22;2.10;;;19.20;99.90;;;;;;4995913;28;20201;-78
2021/08/21 04:09:05;;;;;;;3.05;2.75;;;19.10;99.90;;;;;;4995265;28;20193;-80
2021/08/21 04:11:31;;;;;;;2.40;2.20;;;19.20;99.90;;;;;;4994814;28;20213;-79
2021/08/21 04:13:58;;;;;;;3.80;2.83;;;19.10;99.90;;;;;;4995851;28;20708;-80
2021/08/21 04:16:25;;;;;;;2.25;1.98;;;19.20;99.90;;;;;;4994142;28;20209;-79
2021/08/21 04:18:54;;;;;;;3.15;2.50;;;19.20;99.90;;;;;;4995337;28;20201;-79
2021/08/21 04:21:20;;;;;;;3.60;3.10;;;19.10;99.90;;;;;;4990907;28;20276;-79
2021/08/21 04:23:47;;;;;;;2.30;2.10;;;19.10;99.90;;;;;;5004268;28;20197;-80
2021/08/21 04:26:14;;;;;;;1.70;1.55;;;19.00;99.90;;;;;;4990461;28;20197;-80
2021/08/21 04:28:41;;;;;;;2.67;2.47;;;19.00;99.90;;;;;;4993753;28;20205;-80
2021/08/21 04:31:07;;;;;;;2.78;2.58;;;19.00;99.90;;;;;;4992032;28;20194;-79
2021/08/21 04:33:34;;;;;;;2.60;2.40;;;19.00;99.90;;;;;;4978419;28;20209;-79
2021/08/21 04:36:02;;;;;;;4.57;3.13;;;18.90;99.90;;;;;;4978988;28;20629;-79
2021/08/21 04:38:29;;;;;;;3.75;2.95;;;19.00;99.90;;;;;;4988528;28;20269;-79
2021/08/21 04:40:55;;;;;;;2.30;2.03;;;18.90;99.90;;;;;;4994564;28;20225;-79
2021/08/21 04:43:22;;;;;;;2.65;2.45;;;19.00;99.90;;;;;;4994976;28;20201;-79
2021/08/21 04:45:49;;;;;;;5.10;2.95;;;19.00;99.90;;;;;;4995100;28;20205;-80
2021/08/21 04:48:15;;;;;;;2.70;2.50;;;18.90;99.90;;;;;;4994320;28;20197;-80
2021/08/21 04:50:42;;;;;;;2.28;2.08;;;18.90;99.90;;;;;;4988465;28;20255;-80
2021/08/21 04:53:10;;;;;;;2.85;2.25;;;18.90;99.90;;;;;;4989200;28;20279;-79
2021/08/21 04:55:37;;;;;;;2.42;2.22;;;18.90;99.90;;;;;;4991026;28;20197;-79
2021/08/21 04:58:04;;;;;;;3.35;2.47;;;18.90;99.90;;;;;;4994238;28;20276;-79
2021/08/21 05:00:31;;;;;;;3.85;2.63;;;18.90;99.90;;;;;;4994760;28;20228;-80
2021/08/21 05:02:58;;;;;;;2.80;2.60;;;18.80;99.90;;;;;;4981546;28;20657;-80
2021/08/21 05:05:26;;;;;;;2.75;2.55;;;18.90;99.90;;;;;;4982839;28;20198;-80
2021/08/21 05:07:53;;;;;;;3.40;2.25;;;18.80;99.90;;;;;;4981896;28;20237;-78
2021/08/21 05:10:21;;;;;;;3.25;2.42;;;18.80;99.90;;;;;;4994854;28;20194;-78
2021/08/21 05:12:48;;;;;;;2.45;2.22;;;18.80;99.90;;;;;;4989801;28;20634;-78
2021/08/21 05:15:16;;;;;;;2.55;2.35;;;18.80;99.90;;;;;;4987586;28;20212;-79
2021/08/21 05:17:44;;;;;;;5.72;2.40;;;18.80;99.90;;;;;;4983032;28;20254;-79
2021/08/21 05:20:16;;;;;;;2.70;2.50;;;18.80;99.90;;;;;;4984609;28;20224;-81
2021/08/21 05:23:03;;;;;;;2.95;2.70;;;18.80;99.90;;;;;;4991259;28;20210;-80
2021/08/21 05:25:32;;;;;;;2.60;2.10;;;18.80;99.90;;;;;;4990496;28;20197;-80
2021/08/21 05:27:59;;;;;;;2.85;2.35;;;18.80;99.90;;;;;;4985285;28;20200;-81
2021/08/21 05:30:28;;;;;;;2.67;2.47;;;18.80;99.90;;;;;;4985455;28;20190;-80
2021/08/21 05:32:55;;;;;;;3.05;2.33;;;18.80;99.90;;;;;;4984796;28;20229;-79
2021/08/21 05:35:22;;;;;;;2.35;2.15;;;18.90;99.90;;;;;;4994494;28;20231;-79
2021/08/21 05:37:49;;;;;;;3.65;2.63;;;18.90;99.90;;;;;;4981924;28;20202;-79
2021/08/21 05:40:16;;;;;;;2.70;2.50;;;18.90;99.90;;;;;;4994247;28;20693;-79
2021/08/21 05:42:44;;;;;;;2.85;2.28;;;18.80;99.90;;;;;;4990321;28;20199;-79
2021/08/21 05:45:11;;;;;;;3.50;3.20;;;18.80;99.90;;;;;;4990453;28;20613;-79
2021/08/21 05:47:38;;;;;;;4.07;2.70;;;18.90;99.90;;;;;;4994625;28;20201;-79
2021/08/21 05:50:06;;;;;;;3.30;3.05;;;18.90;99.90;;;;;;4993184;28;20252;-79
2021/08/21 05:52:33;;;;;;;3.13;2.83;;;18.90;99.90;;;;;;4989643;28;20638;-79
2021/08/21 05:54:59;;;;;;;3.55;3.25;;;19.00;99.90;;;;;;4994868;28;20209;-79
2021/08/21 05:57:26;;;;;;;3.35;3.05;;;19.10;99.90;;;;;;4993479;28;20198;-79
2021/08/21 05:59:54;;;;;;;3.15;2.30;;;19.10;99.90;;;;;;4995124;28;20205;-79
2021/08/21 06:02:21;;;;;;;3.05;2.85;;;19.20;99.90;;;;;;4993343;28;20208;-80
2021/08/21 06:04:47;;;;;;;3.33;2.47;;;19.30;99.90;;;;;;4989920;28;20650;-80
2021/08/21 06:07:14;;;;;;;3.75;3.22;;;19.40;99.90;;;;;;4993936;28;20193;-80
2021/08/21 06:09:43;;;;;;;4.35;2.50;;;19.50;99.90;;;;;;4993026;28;20252;-80
2021/08/21 06:12:10;;;;;;;2.88;2.65;;;19.50;99.90;;;;;;4984964;28;20226;-79
2021/08/21 06:14:39;;;;;;;6.13;2.72;;;19.50;99.90;;;;;;4989655;28;20197;-80
2021/08/21 06:17:08;;;;;;;3.42;3.13;;;19.50;99.90;;;;;;4990681;28;20281;-80
2021/08/21 06:19:35;;;;;;;3.90;3.20;;;19.40;99.90;;;;;;4992226;28;20198;-80
2021/08/21 06:22:02;;;;;;;7.28;3.13;;;19.40;99.90;;;;;;4990214;28;20690;-80
2021/08/21 06:24:28;;;;;;;3.30;3.00;;;19.40;99.90;;;;;;4990758;28;20280;-81
2021/08/21 06:26:55;;;;;;;3.30;2.75;;;19.40;99.90;;;;;;4997204;28;20325;-80
2021/08/21 06:29:22;;;;;;;3.20;2.80;;;19.30;99.90;;;;;;4995191;28;20573;-80
2021/08/21 06:31:49;;;;;;;3.42;3.00;;;19.40;99.90;;;;;;4990161;28;20259;-79
2021/08/21 06:34:17;;;;;;;3.65;2.85;;;19.30;99.90;;;;;;4997263;28;20252;-80
2021/08/21 06:36:44;;;;;;;3.10;2.80;;;19.40;99.90;;;;;;4997394;28;20201;-80
2021/08/21 06:39:11;;;;;;;4.03;3.30;;;19.40;99.90;;;;;;4997190;28;20329;-80
2021/08/21 06:41:38;;;;;;;3.65;3.35;;;19.40;99.90;;;;;;4981233;28;20539;-79
2021/08/21 06:44:05;;;;;;;4.45;3.30;;;19.40;99.90;;;;;;4992511;28;20194;-80
2021/08/21 06:46:31;;;;;;;3.17;2.92;;;19.40;99.90;;;;;;4983251;28;20201;-81
2021/08/21 06:48:58;;;;;;;6.65;3.40;;;19.50;99.90;;;;;;4995779;28;20229;-81
2021/08/21 06:51:26;;;;;;;4.35;3.90;;;19.50;99.90;;;;;;4997321;28;20256;-80
2021/08/21 06:53:53;;;;;;;3.72;3.42;;;19.50;99.90;;;;;;4995636;28;20296;-80
2021/08/21 06:56:20;;;;;;;4.47;3.08;;;19.40;99.90;;;;;;4997601;28;20217;-79
2021/08/21 06:58:48;;;;;;;5.00;4.10;;;19.40;99.90;;;;;;5000355;28;20202;-81
2021/08/21 07:01:15;;;;;;;3.53;3.22;;;19.40;99.90;;;;;;5002914;28;20221;-81
2021/08/21 07:03:42;;;;;;;3.65;3.35;;;19.40;99.90;;;;;;5011957;28;20197;-82
2021/08/21 07:06:08;;;;;;;3.80;3.40;;;19.40;99.90;;;;;;5007158;28;20201;-81
2021/08/21 07:08:36;;;;;;;3.55;2.47;;;19.40;99.90;;;;;;4998602;28;20541;-82
2021/08/21 07:11:03;;;;;;;3.70;3.08;;;19.40;99.90;;;;;;4994054;28;20218;-81
2021/08/21 07:13:30;;;;;;;3.45;3.00;;;19.40;99.90;;;;;;4999409;28;20234;-81
2021/08/21 07:15:57;;;;;;;3.50;3.20;;;19.50;99.90;;;;;;5002723;28;20209;-82
2021/08/21 07:18:23;;;;;;;5.93;3.10;;;19.40;99.90;;;;;;4996502;28;20206;-81
2021/08/21 07:20:50;;;;;;;4.25;3.85;;;19.40;99.90;;;;;;4984790;28;20638;-81
2021/08/21 07:23:17;;;;;;;3.60;3.30;;;19.40;99.90;;;;;;5004701;28;20225;-82
2021/08/21 07:25:45;;;;;;;3.20;2.90;;;19.40;99.90;;;;;;5005185;28;20205;-83
2021/08/21 07:28:12;;;;;;;3.67;3.30;;;19.40;99.90;;;;;;4991359;28;20533;-79
2021/08/21 07:30:39;;;;;;;3.05;2.85;;;21.00;99.90;;;;;;4994344;28;20193;-81
2021/08/21 07:33:05;;;;;;;3.80;3.50;;;19.40;99.90;;;;;;4999000;28;20252;-79
2021/08/21 07:35:32;;;;;;;3.63;3.40;;;19.40;99.90;;;;;;4994716;28;20337;-79
2021/08/21 07:37:59;;;;;;;2.78;2.58;;;19.50;99.90;;;;;;5001030;28;20193;-79
2021/08/21 07:40:26;;;;;;;2.45;2.25;;;19.40;99.90;;;;;;4996585;28;20236;-79
2021/08/21 07:42:54;;;;;;;4.03;3.72;;;19.50;99.90;;;;;;4989917;28;20194;-78
2021/08/21 07:45:21;;;;;;;3.08;2.58;;;19.50;99.90;;;;;;4983355;28;20211;-78
2021/08/21 07:47:49;;;;;;;3.95;2.45;;;19.50;99.90;;;;;;4985078;28;20642;-79
2021/08/21 07:50:17;;;;;;;2.67;2.47;;;19.50;99.90;;;;;;4998064;28;20288;-80
2021/08/21 07:52:45;;;;;;;3.10;2.80;;;19.50;99.90;;;;;;4999730;28;20261;-80
2021/08/21 07:55:13;;;;;;;3.03;2.72;;;19.60;99.90;;;;;;5001320;28;20272;-80
2021/08/21 07:57:39;;;;;;;3.63;3.33;;;19.60;99.90;;;;;;5001078;28;20264;-79
2021/08/21 08:00:09;;;;;;;2.85;2.65;;;19.60;99.90;;;;;;4999573;28;20809;-80
2021/08/21 08:02:36;;;;;;;3.30;3.03;;;19.60;99.90;;;;;;4997086;28;20233;-80
2021/08/21 08:05:02;;;;;;;2.45;2.25;;;19.60;99.90;;;;;;4994465;28;20202;-80
2021/08/21 08:07:29;;;;;;;2.90;2.65;;;19.60;99.90;;;;;;5001851;28;20256;-80
2021/08/21 08:09:56;;;;;;;3.20;2.50;;;19.70;99.90;;;;;;4990876;28;20190;-80
2021/08/21 08:12:22;;;;;;;3.05;2.75;;;19.70;99.90;;;;;;4986925;28;20256;-80
2021/08/21 08:14:49;;;;;;;3.22;2.92;;;19.70;99.90;;;;;;4997409;28;20275;-80
2021/08/21 08:17:17;;;;;;;3.03;2.75;;;19.70;99.90;;;;;;4997270;28;20218;-81
2021/08/21 08:19:44;;;;;;;2.65;2.45;;;19.80;99.90;;;;;;4993275;28;20285;-80
2021/08/21 08:22:11;;;;;;;2.45;2.25;;;19.70;99.90;;;;;;4982458;28;20213;-80
2021/08/21 08:24:38;;;;;;;2.67;2.33;;;19.80;99.90;;;;;;4980679;28;20566;-80
2021/08/21 08:27:05;;;;;;;2.50;2.30;;;19.80;99.90;;;;;;4983602;28;20204;-81
2021/08/21 08:29:32;;;;;;;2.92;2.72;;;19.90;99.90;;;;;;4994780;28;20217;-80
2021/08/21 08:31:59;;;;;;;3.15;2.85;;;19.90;99.90;;;;;;4990394;28;20194;-82
2021/08/21 08:34:27;;;;;;;3.33;2.80;;;20.00;99.90;;;;;;4993909;28;20256;-80
2021/08/21 08:36:53;;;;;;;3.60;2.97;;;20.00;99.90;;;;;;4988035;28;20205;-81
2021/08/21 08:39:20;;;;;;;3.95;3.30;;;20.00;99.90;;;;;;4991893;28;20198;-81
2021/08/21 08:41:47;;;;;;;3.00;2.72;;;20.00;99.90;;;;;;4992161;28;20221;-81
2021/08/21 08:44:15;;;;;;;2.58;2.38;;;20.10;99.90;;;;;;5005449;28;20233;-81
2021/08/21 08:46:43;;;;;;;2.30;2.10;;;20.10;99.90;;;;;;5017543;28;20200;-84
2021/08/21 08:49:10;;;;;;;3.10;2.90;;;20.10;99.90;;;;;;5017156;28;20203;-84
2021/08/21 08:51:39;;;;;;;3.10;2.67;;;20.10;99.90;;;;;;4998194;28;20220;-84
2021/08/21 08:54:05;;;;;;;4.47;3.45;;;20.20;99.90;;;;;;4995337;28;20197;-83
2021/08/21 08:56:34;;;;;;;3.30;3.00;;;20.20;99.90;;;;;;4998072;28;20201;-84
2021/08/21 08:59:01;;;;;;;4.20;3.40;;;20.30;99.90;;;;;;4997143;28;20299;-84
2021/08/21 09:01:28;;;;;;;5.70;3.33;;;20.30;99.90;;;;;;4995146;28;20708;-84
2021/08/21 09:04:19;;;;;;;6.85;3.80;;;20.30;99.90;;;;;;4989964;28;20197;-83
2021/08/21 09:06:48;;;;;;;4.75;3.50;;;20.30;99.90;;;;;;4993851;28;20208;-83
2021/08/21 09:09:16;;;;;;;5.28;4.22;;;20.40;99.90;;;;;;4988882;28;20642;-83
2021/08/21 09:11:44;;;;;;;4.88;3.90;;;20.40;99.90;;;;;;4993527;28;20229;-83
2021/08/21 09:14:21;;;;;;;4.03;3.42;;;20.50;99.90;;;;;;4996102;28;20204;-83
2021/08/21 09:16:48;;;;;;;6.10;4.75;;;20.50;99.90;;;;;;4993524;28;20198;-83
2021/08/21 09:19:24;;;;;;;8.52;4.15;;;20.60;99.90;;;;;;4994750;28;20264;-83
2021/08/21 09:22:02;;;;;;;5.70;4.45;;;20.60;99.90;;;;;;4990444;28;20213;-82
2021/08/21 09:24:29;;;;;;;6.97;4.95;;;20.70;99.90;;;;;;4996720;28;20213;-83
2021/08/21 09:26:56;;;;;;;4.28;3.53;;;20.70;99.90;;;;;;4997243;28;20259;-84
2021/08/21 09:29:27;;;;;;;3.78;3.47;;;20.80;99.90;;;;;;4994345;28;20205;-78
2021/08/21 09:32:08;;;;;;;4.50;4.00;;;20.90;99.90;;;;;;4993664;28;20197;-79
2021/08/21 09:34:35;;;;;;;9.02;7.05;;;20.90;99.90;;;;;;4998834;28;20197;-79
2021/08/21 09:37:03;;;;;;;5.78;5.05;;;21.00;99.90;;;;;;4995774;28;20209;-79
2021/08/21 09:39:36;;;;;;;3.92;3.55;;;21.00;99.90;;;;;;4997882;28;20201;-79
2021/08/21 09:42:05;;;;;;;6.47;5.80;;;21.10;99.90;;;;;;4995273;28;20225;-78
2021/08/21 09:44:34;;;;;;;6.70;4.50;;;21.10;99.90;;;;;;4996616;28;20209;-78
2021/08/21 09:47:23;;;;;;;6.60;4.75;;;21.10;99.90;;;;;;4984332;28;20202;-78
2021/08/21 09:49:51;;;;;;;7.97;4.45;;;21.20;99.90;;;;;;4967623;28;20237;-79
2021/08/21 09:52:20;;;;;;;5.30;4.80;;;21.20;99.90;;;;;;4994244;28;20193;-79
2021/08/21 09:55:04;;;;;;;5.00;3.55;;;21.20;99.90;;;;;;4999059;28;20202;-80
2021/08/21 09:57:32;;;;;;;5.95;4.88;;;21.20;99.90;;;;;;4998688;28;20724;-79
2021/08/21 10:00:00;;;;;;;4.25;3.95;;;21.30;99.90;;;;;;4990452;28;20204;-78
2021/08/21 10:02:29;;;;;;;4.30;3.53;;;21.30;99.90;;;;;;4998393;28;20222;-79
2021/08/21 10:04:56;;;;;;;3.38;3.08;;;21.40;99.90;;;;;;4995912;28;20193;-78
2021/08/21 10:07:30;;;;;;;5.32;4.82;;;21.40;99.90;;;;;;4998467;28;20201;-78
2021/08/21 10:09:58;;;;;;;5.50;4.85;;;21.40;99.90;;;;;;4992922;28;20198;-79
2021/08/21 10:12:25;;;;;;;3.30;3.00;;;21.50;99.90;;;;;;4989518;28;20237;-79
2021/08/21 10:14:51;;;;;;;4.82;3.08;;;21.50;99.90;;;;;;4998687;28;20197;-78
2021/08/21 10:17:19;;;;;;;6.30;5.13;;;21.50;99.90;;;;;;4998269;28;20201;-78
2021/08/21 10:19:47;;;;;;;4.63;4.15;;;21.60;99.90;;;;;;4991534;28;20206;-79
2021/08/21 10:22:15;;;;;;;4.07;3.57;;;21.70;99.90;;;;;;4996887;28;20726;-79
2021/08/21 10:24:47;;;;;;;4.40;3.50;;;21.80;99.90;;;;;;4995870;28;20464;-80
2021/08/21 10:27:20;;;;;;;4.70;4.20;;;21.80;99.90;;;;;;4995869;28;20539;-79
2021/08/21 10:30:02;;;;;;;5.53;3.10;;;21.90;99.90;;;;;;4986035;28;20449;-79
2021/08/21 10:32:30;;;;;;;3.60;2.57;;;21.90;99.90;;;;;;4990547;28;20969;-79
2021/08/21 10:34:56;;;;;;;3.80;3.50;;;21.90;99.90;;;;;;4991034;28;20522;-79
2021/08/21 10:37:34;;;;;;;7.03;4.90;;;22.00;99.90;;;;;;5000271;28;20844;-79
2021/08/21 10:40:34;;;;;;;4.63;4.23;;;22.00;99.90;;;;;;5000235;28;20976;-78
2021/08/21 10:43:03;;;;;;;4.90;3.90;;;22.10;99.90;;;;;;4988452;28;20481;-78
2021/08/21 10:45:46;;;;;;;6.03;3.87;;;22.10;99.90;;;;;;4999029;28;20448;-78
2021/08/21 10:48:14;;;;;;;3.67;3.35;;;22.10;99.90;;;;;;4997054;28;20791;-78
2021/08/21 10:50:44;;;;;;;5.23;4.63;;;22.10;99.90;;;;;;4998317;28;20268;-77
2021/08/21 10:53:20;;;;;;;5.40;4.90;;;22.20;99.90;;;;;;4989334;28;20457;-77
2021/08/21 10:55:47;;;;;;;5.53;5.13;;;22.20;99.90;;;;;;4987875;28;20499;-78
2021/08/21 10:58:17;;;;;;;4.33;3.93;;;22.20;99.90;;;;;;4996529;28;20460;-79
2021/08/21 11:00:52;;;;;;;4.10;3.70;;;22.20;99.90;;;;;;4989578;28;20445;-78
2021/08/21 11:03:43;;;;;;;3.63;3.33;;;22.20;99.90;;;;;;4996835;28;20480;-79
2021/08/21 11:06:11;;;;;;;4.27;3.97;;;22.20;99.90;;;;;;5001225;28;20441;-79
2021/08/21 11:09:01;;;;;;;3.70;3.40;;;22.20;99.90;;;;;;4991584;28;20516;-77
2021/08/21 11:11:35;;;;;;;3.70;3.40;;;22.20;99.90;;;;;;4988190;28;20484;-78
2021/08/21 11:14:08;;;;;;;3.03;2.73;;;22.20;99.90;;;;;;5000544;28;20475;-78
2021/08/21 11:16:50;;;;;;;4.33;3.63;;;22.30;99.90;;;;;;4997007;28;20473;-79
2021/08/21 11:19:33;;;;;;;3.43;3.13;;;22.30;99.90;;;;;;4994220;28;20484;-79
2021/08/21 11:22:13;;;;;;;3.37;3.07;;;22.30;99.90;;;;;;4996094;28;20527;-77
2021/08/21 11:24:57;;;;;;;3.83;3.30;;;22.30;99.90;;;;;;4991945;28;20520;-78
2021/08/21 11:27:32;;;;;;;3.00;2.77;;;22.30;99.90;;;;;;4995118;28;20499;-78
2021/08/21 11:30:27;;;;;;;2.83;2.60;;;22.30;99.90;;;;;;4999881;28;20448;-78
2021/08/21 11:32:58;;;;;;;4.67;4.07;;;22.40;99.90;;;;;;4951848;28;20461;-80
2021/08/21 11:35:26;;;;;;;3.43;3.13;;;22.40;99.90;;;;;;4997240;28;20497;-78
2021/08/21 11:37:55;;;;;;;4.50;3.70;;;22.40;99.90;;;;;;4985020;28;20446;-81
2021/08/21 11:40:24;;;;;;;4.50;3.77;;;22.40;99.90;;;;;;4996634;28;20527;-79
2021/08/21 11:42:53;;;;;;;3.73;3.43;;;22.40;99.90;;;;;;4998039;28;20553;-79
2021/08/21 11:45:21;;;;;;;3.13;2.93;;;22.40;99.90;;;;;;4991183;28;20617;-79
2021/08/21 11:47:52;;;;;;;4.43;3.60;;;22.40;99.90;;;;;;4998497;28;20477;-78
2021/08/21 11:50:32;;;;;;;3.77;3.47;;;22.40;99.90;;;;;;4995916;28;20528;-78
2021/08/21 11:53:01;;;;;;;3.70;3.30;;;22.50;99.90;;;;;;5000373;28;20451;-79
2021/08/21 11:55:29;;;;;;;4.03;3.63;;;22.50;99.90;;;;;;4998637;28;20457;-78
2021/08/21 11:57:56;;;;;;;3.33;3.07;;;22.50;99.90;;;;;;4999832;28;20459;-78
2021/08/21 12:00:25;;;;;;;3.13;2.93;;;22.50;99.90;;;;;;4999844;28;20444;-78
2021/08/21 12:02:56;;;;;;;2.70;2.50;;;22.50;99.90;;;;;;4990364;28;20500;-79
2021/08/21 12:05:35;;;;;;;3.03;2.83;;;22.50;99.90;;;;;;4995496;28;20473;-79
2021/08/21 12:08:17;;;;;;;3.70;3.40;;;22.50;99.90;;;;;;5004070;28;20452;-80
2021/08/21 12:10:45;;;;;;;3.13;2.80;;;22.50;99.90;;;;;;5003394;28;20507;-79
2021/08/21 12:13:13;;;;;;;3.80;3.50;;;22.50;99.90;;;;;;4994502;28;20906;-80
2021/08/21 12:15:40;;;;;;;4.10;3.70;;;22.50;99.90;;;;;;5002396;28;20507;-79
2021/08/21 12:18:09;;;;;;;3.50;3.23;;;22.60;99.90;;;;;;5001824;28;20491;-79
2021/08/21 12:20:38;;;;;;;4.50;3.63;;;22.60;99.90;;;;;;5002569;28;20492;-80
2021/08/21 12:23:07;;;;;;;3.60;3.30;;;22.60;99.90;;;;;;4998646;28;20479;-80
2021/08/21 12:25:44;;;;;;;4.87;3.50;;;22.60;99.90;;;;;;5002020;28;20503;-79
2021/08/21 12:28:12;;;;;;;3.27;3.07;;;22.60;99.90;;;;;;5003595;28;20453;-78
2021/08/21 12:30:39;;;;;;;5.33;3.83;;;22.60;99.90;;;;;;4997887;28;20452;-77
2021/08/21 12:33:13;;;;;;;3.30;3.00;;;22.70;99.90;;;;;;4995844;28;20468;-79
2021/08/21 12:35:40;;;;;;;6.07;5.47;;;22.70;99.90;;;;;;4997020;28;20475;-79
2021/08/21 12:38:08;;;;;;;9.70;5.30;;;22.70;99.90;;;;;;4995704;28;21031;-81
2021/08/21 12:40:35;;;;;;;5.43;4.77;;;22.90;99.90;;;;;;4996709;28;20540;-82
2021/08/21 12:43:03;;;;;;;5.40;4.70;;;23.00;99.90;;;;;;4997068;28;20516;-82
2021/08/21 12:45:30;;;;;;;8.97;4.13;;;23.00;99.90;;;;;;4994182;28;20520;-81
2021/08/21 12:48:07;;;;;;;4.77;3.43;;;23.00;99.90;;;;;;4988416;28;20464;-80
2021/08/21 12:50:41;;;;;;;4.00;3.60;;;23.00;99.90;;;;;;4997278;28;20448;-81
2021/08/21 12:53:09;;;;;;;4.00;3.27;;;23.00;99.90;;;;;;4998356;28;20511;-81
2021/08/21 12:55:36;;;;;;;5.47;3.30;;;23.00;99.90;;;;;;4997471;28;20443;-81